createdAt,value
2023-04-16T00:00:25.559Z,79.24
2023-04-16T00:03:27.528Z,78.76
2023-04-16T00:06:29.607Z,78.52
2023-04-16T00:09:32.792Z,78.75
2023-04-16T00:12:36.588Z,79.02
2023-04-16T00:15:38.400Z,78.90
2023-04-16T00:18:40.929Z,78.61
2023-04-16T00:21:42.850Z,78.71
2023-04-16T00:24:46.046Z,79.21
2023-04-16T00:27:48.509Z,78.31
2023-04-16T00:30:50.330Z,78.76
2023-04-16T00:33:52.143Z,79.24
2023-04-16T00:36:53.907Z,78.83
2023-04-16T00:39:57.074Z,78.99
2023-04-16T00:42:58.853Z,79.66
2023-04-16T00:46:04.593Z,79.61
2023-04-16T00:49:06.638Z,78.50
2023-04-16T00:52:08.607Z,78.07
2023-04-16T00:55:13.492Z,79.29
2023-04-16T00:58:15.987Z,79.53
2023-04-16T01:01:17.871Z,78.96
2023-04-16T01:04:20.755Z,79.23
2023-04-16T01:07:22.703Z,79.93
2023-04-16T01:10:26.033Z,79.24
2023-04-16T01:13:27.912Z,78.78
2023-04-16T01:16:29.784Z,78.28
2023-04-16T01:19:32.452Z,78.40
2023-04-16T01:22:35.618Z,78.93
2023-04-16T01:25:38.597Z,79.06
2023-04-16T01:28:40.579Z,79.93
2023-04-16T01:31:42.586Z,79.67
2023-04-16T01:34:45.541Z,79.99
2023-04-16T01:37:50.010Z,78.90
2023-04-16T01:40:57.091Z,79.07
2023-04-16T01:43:58.905Z,78.75
2023-04-16T01:47:01.525Z,79.44
2023-04-16T01:50:04.318Z,78.57
2023-04-16T01:53:07.564Z,78.66
2023-04-16T01:56:09.350Z,79.39
2023-04-16T01:59:12.387Z,79.06
2023-04-16T02:02:16.508Z,78.47
2023-04-16T02:05:19.508Z,78.69
2023-04-16T02:08:23.367Z,78.42
2023-04-16T02:11:25.379Z,79.08
2023-04-16T02:14:27.997Z,78.82
2023-04-16T02:17:30.302Z,78.24
2023-04-16T02:20:32.145Z,78.44
2023-04-16T02:23:35.666Z,78.28
2023-04-16T02:26:37.524Z,77.70
2023-04-16T02:29:39.340Z,78.71
2023-04-16T02:32:41.240Z,78.66
2023-04-16T02:35:43.257Z,77.83
2023-04-16T02:38:47.008Z,77.86
2023-04-16T02:41:48.844Z,78.98
2023-04-16T02:44:50.623Z,79.13
2023-04-16T02:47:52.565Z,78.33
2023-04-16T02:50:54.402Z,79.67
2023-04-16T02:53:58.591Z,79.41
2023-04-16T02:57:00.660Z,79.34
2023-04-16T03:00:02.486Z,78.70
2023-04-16T03:03:05.931Z,78.50
2023-04-16T03:06:07.828Z,77.84
2023-04-16T03:09:11.807Z,78.35
2023-04-16T03:12:13.708Z,78.09
2023-04-16T03:15:15.985Z,78.35
2023-04-16T03:18:18.082Z,77.81
2023-04-16T03:21:19.964Z,78.22
2023-04-16T03:24:23.468Z,76.91
2023-04-16T03:27:25.479Z,77.58
2023-04-16T03:30:28.145Z,77.83
2023-04-16T03:33:29.938Z,79.21
2023-04-16T03:36:32.674Z,78.34
2023-04-16T03:39:36.093Z,78.80
2023-04-16T03:42:37.937Z,79.16
2023-04-16T03:45:44.468Z,79.71
2023-04-16T03:48:46.685Z,80.70
2023-04-16T03:51:49.082Z,79.34
2023-04-16T03:54:52.425Z,77.89
2023-04-16T03:57:54.321Z,77.64
2023-04-16T04:00:56.981Z,78.75
2023-04-16T04:03:59.176Z,79.14
2023-04-16T04:07:02.012Z,79.34
2023-04-16T04:10:06.322Z,80.16
2023-04-16T04:13:08.245Z,79.04
2023-04-16T04:16:10.071Z,77.78
2023-04-16T04:19:11.896Z,78.18
2023-04-16T04:22:13.814Z,78.83
2023-04-16T04:25:17.808Z,79.39
2023-04-16T04:28:19.631Z,79.17
2023-04-16T04:31:22.079Z,78.83
2023-04-16T04:34:23.988Z,78.42
2023-04-16T04:37:26.016Z,79.64
2023-04-16T04:40:29.208Z,80.16
2023-04-16T04:43:31.973Z,80.28
2023-04-16T04:46:33.835Z,79.42
2023-04-16T04:49:36.027Z,80.49
2023-04-16T04:52:37.837Z,80.81
2023-04-16T04:55:41.039Z,78.75
2023-04-16T04:58:42.953Z,78.50
2023-04-16T05:01:44.816Z,77.91
2023-04-16T05:04:46.890Z,77.24
2023-04-16T05:07:48.828Z,76.34
2023-04-16T05:10:52.171Z,76.33
2023-04-16T05:13:54.021Z,77.08
2023-04-16T05:16:57.037Z,75.96
2023-04-16T05:20:00.653Z,77.40
2023-04-16T05:23:02.505Z,77.81
2023-04-16T05:26:05.780Z,78.66
2023-04-16T05:29:07.774Z,78.60
2023-04-16T05:32:09.803Z,78.42
2023-04-16T05:35:11.697Z,78.22
2023-04-16T05:38:13.904Z,79.06
2023-04-16T05:41:17.073Z,79.87
2023-04-16T05:44:18.884Z,79.73
2023-04-16T05:47:21.533Z,79.24
2023-04-16T05:50:23.468Z,78.53
2023-04-16T05:53:25.523Z,79.28
2023-04-16T05:56:28.886Z,79.49
2023-04-16T05:59:31.397Z,79.12
2023-04-16T06:02:33.410Z,78.52
2023-04-16T06:05:35.395Z,77.98
2023-04-16T06:08:37.280Z,77.72
2023-04-16T06:11:41.624Z,78.64
2023-04-16T06:14:43.437Z,78.32
2023-04-16T06:17:45.859Z,78.63
2023-04-16T06:20:47.914Z,77.84
2023-04-16T06:23:49.882Z,77.60
2023-04-16T06:26:54.769Z,77.69
2023-04-16T06:29:57.417Z,78.32
2023-04-16T06:32:59.481Z,77.82
2023-04-16T06:36:01.378Z,77.94
2023-04-16T06:39:03.269Z,77.66
2023-04-16T06:42:06.949Z,77.33
2023-04-16T06:45:09.696Z,78.36
2023-04-16T06:48:11.574Z,76.78
2023-04-16T06:51:13.492Z,77.79
2023-04-16T06:54:15.554Z,77.33
2023-04-16T06:57:18.945Z,76.82
2023-04-16T07:00:23.789Z,78.03
2023-04-16T07:03:26.783Z,77.97
2023-04-16T07:06:28.753Z,75.92
2023-04-16T07:09:31.546Z,75.78
2023-04-16T07:12:34.788Z,75.21
2023-04-16T07:15:36.683Z,74.91
2023-04-16T07:18:38.569Z,75.72
2023-04-16T07:21:42.111Z,73.85
2023-04-16T07:24:44.444Z,74.88
2023-04-16T07:27:47.628Z,74.77
2023-04-16T07:30:49.741Z,73.42
2023-04-16T07:33:51.715Z,73.57
2023-04-16T07:36:54.406Z,72.73
2023-04-16T07:39:57.763Z,71.67
2023-04-16T07:43:01.051Z,73.14
2023-04-16T07:46:02.966Z,73.21
2023-04-16T07:49:04.790Z,70.19
2023-04-16T07:52:07.421Z,69.47
2023-04-16T07:55:09.645Z,68.90
2023-04-16T07:58:12.872Z,69.87
2023-04-16T08:01:14.682Z,67.71
2023-04-16T08:04:23.301Z,74.48
2023-04-16T08:07:25.570Z,75.96
2023-04-16T08:10:28.009Z,75.93
2023-04-16T08:13:33.485Z,71.74
2023-04-16T08:16:35.561Z,72.81
2023-04-16T08:19:37.383Z,75.39
2023-04-16T08:22:39.428Z,74.82
2023-04-16T08:25:41.312Z,73.32
2023-04-16T08:28:44.448Z,71.72
2023-04-16T08:31:46.813Z,72.76
2023-04-16T08:34:48.845Z,67.83
2023-04-16T08:37:51.382Z,68.57
2023-04-16T08:40:55.148Z,67.79
2023-04-16T08:44:02.391Z,66.23
2023-04-16T08:47:09.130Z,63.63
2023-04-16T08:50:14.989Z,62.78
2023-04-16T08:53:19.318Z,64.39
2023-04-16T08:56:23.792Z,64.37
2023-04-16T08:59:29.492Z,63.52
2023-04-16T09:02:31.696Z,63.64
2023-04-16T09:05:34.967Z,64.72
2023-04-16T09:08:38.255Z,66.93
2023-04-16T09:11:40.121Z,68.02
2023-04-16T09:14:44.311Z,66.43
2023-04-16T09:17:46.193Z,66.03
2023-04-16T09:20:49.195Z,62.90
2023-04-16T09:23:52.958Z,64.13
2023-04-16T09:26:55.934Z,65.51
2023-04-16T09:29:59.408Z,61.03
2023-04-16T09:33:22.463Z,63.59
2023-04-16T09:36:24.729Z,61.38
2023-04-16T09:39:27.494Z,62.55
2023-04-16T09:42:31.815Z,62.86
2023-04-16T09:45:48.561Z,60.30
2023-04-16T09:48:51.263Z,62.29
2023-04-16T09:51:56.251Z,62.47
2023-04-16T09:55:00.000Z,63.09
2023-04-16T09:58:02.386Z,62.48
2023-04-16T10:01:08.409Z,63.03
2023-04-16T10:04:11.473Z,64.78
2023-04-16T10:07:13.493Z,63.89
2023-04-16T10:10:16.364Z,63.26
2023-04-16T10:13:19.236Z,62.28
2023-04-16T10:16:22.942Z,63.17
2023-04-16T10:19:25.202Z,62.41
2023-04-16T10:22:27.096Z,64.61
2023-04-16T10:25:29.253Z,62.36
2023-04-16T10:28:31.501Z,62.58
2023-04-16T10:31:36.925Z,62.00
2023-04-16T10:34:39.806Z,61.24
2023-04-16T10:37:43.095Z,62.08
2023-04-16T10:40:45.142Z,60.26
2023-04-16T10:43:48.565Z,60.89
2023-04-16T10:46:54.959Z,60.14
2023-04-16T10:49:58.450Z,60.31
2023-04-16T10:53:20.765Z,59.31
2023-04-16T10:56:26.913Z,59.62
2023-04-16T10:59:31.926Z,59.48
2023-04-16T11:02:35.317Z,56.54
2023-04-16T11:05:47.022Z,57.31
2023-04-16T11:08:55.085Z,55.65
2023-04-16T11:11:57.963Z,57.79
2023-04-16T11:15:01.854Z,54.68
2023-04-16T11:18:07.116Z,55.59
2023-04-16T11:21:10.606Z,54.41
2023-04-16T11:24:12.933Z,55.10
2023-04-16T11:27:16.198Z,55.07
2023-04-16T11:30:27.987Z,53.36
2023-04-16T11:33:31.611Z,54.12
2023-04-16T11:36:43.370Z,54.67
2023-04-16T11:39:49.847Z,55.04
2023-04-16T11:42:51.691Z,53.29
2023-04-16T11:45:57.913Z,53.01
2023-04-16T11:49:01.260Z,56.50
2023-04-16T11:52:03.901Z,55.32
2023-04-16T11:55:06.654Z,51.89
2023-04-16T11:58:12.919Z,52.73
2023-04-16T12:01:20.565Z,53.07
2023-04-16T12:04:25.727Z,53.73
2023-04-16T12:07:27.880Z,53.17
2023-04-16T12:10:30.707Z,51.83
2023-04-16T12:13:39.830Z,52.75
2023-04-16T12:16:41.878Z,52.23
2023-04-16T12:19:52.897Z,52.62
2023-04-16T12:22:57.098Z,50.17
2023-04-16T12:26:10.557Z,51.89
2023-04-16T12:29:17.325Z,52.17
2023-04-16T12:32:23.501Z,51.48
2023-04-16T12:35:34.344Z,51.65
2023-04-16T12:38:36.256Z,50.44
2023-04-16T12:41:40.358Z,52.33
2023-04-16T12:44:42.241Z,50.80
2023-04-16T12:47:44.051Z,51.14
2023-04-16T12:50:48.444Z,52.28
2023-04-16T12:53:50.371Z,50.68
2023-04-16T12:56:52.651Z,51.85
2023-04-16T12:59:55.177Z,49.44
2023-04-16T13:02:57.136Z,50.81
2023-04-16T13:06:02.348Z,51.52
2023-04-16T13:09:05.004Z,49.80
2023-04-16T13:12:07.548Z,50.82
2023-04-16T13:15:10.732Z,50.29
2023-04-16T13:18:12.570Z,50.39
2023-04-16T13:21:16.123Z,51.39
2023-04-16T13:24:17.953Z,50.61
2023-04-16T13:27:20.433Z,50.63
2023-04-16T13:30:25.568Z,50.55
2023-04-16T13:33:28.223Z,49.31
2023-04-16T13:36:33.482Z,49.40
2023-04-16T13:39:35.737Z,50.27
2023-04-16T13:42:38.711Z,50.31
2023-04-16T13:45:40.955Z,50.41
2023-04-16T13:48:42.857Z,48.66
2023-04-16T13:51:46.439Z,50.29
2023-04-16T13:54:48.564Z,49.35
2023-04-16T13:57:52.985Z,50.98
2023-04-16T14:00:56.303Z,51.49
2023-04-16T14:03:59.583Z,50.08
2023-04-16T14:07:02.885Z,52.29
2023-04-16T14:10:05.639Z,48.90
2023-04-16T14:13:08.526Z,48.75
2023-04-16T14:16:11.145Z,49.49
2023-04-16T14:19:14.195Z,49.52
2023-04-16T14:22:18.062Z,48.18
2023-04-16T14:25:21.042Z,49.94
2023-04-16T14:28:23.252Z,50.51
2023-04-16T14:31:26.870Z,48.48
2023-04-16T14:34:29.369Z,50.09
2023-04-16T14:37:36.294Z,47.59
2023-04-16T14:40:38.256Z,46.17
2023-04-16T14:43:41.576Z,46.40
2023-04-16T14:46:44.047Z,50.58
2023-04-16T14:49:46.933Z,50.69
2023-04-16T14:52:51.098Z,46.87
2023-04-16T14:55:53.716Z,47.86
2023-04-16T14:58:56.526Z,50.03
2023-04-16T15:01:59.363Z,47.83
2023-04-16T15:05:02.129Z,46.04
2023-04-16T15:08:09.034Z,46.86
2023-04-16T15:11:11.166Z,48.15
2023-04-16T15:14:13.721Z,46.15
2023-04-16T15:17:15.774Z,47.39
2023-04-16T15:20:18.794Z,48.30
2023-04-16T15:23:22.868Z,48.52
2023-04-16T15:26:26.234Z,48.44
2023-04-16T15:29:28.195Z,46.69
2023-04-16T15:32:31.434Z,46.99
2023-04-16T15:35:37.204Z,46.41
2023-04-16T15:38:40.906Z,49.23
2023-04-16T15:41:59.311Z,48.62
2023-04-16T15:45:03.272Z,47.94
2023-04-16T15:48:07.134Z,45.03
2023-04-16T15:51:09.565Z,45.80
2023-04-16T15:54:13.598Z,51.58
2023-04-16T15:57:16.665Z,44.63
2023-04-16T16:00:20.360Z,46.45
2023-04-16T16:03:25.093Z,46.26
2023-04-16T16:06:30.557Z,45.74
2023-04-16T16:09:35.697Z,46.72
2023-04-16T16:12:38.170Z,49.18
2023-04-16T16:15:41.803Z,50.88
2023-04-16T16:18:44.287Z,50.35
2023-04-16T16:21:47.760Z,52.92
2023-04-16T16:24:56.761Z,52.42
2023-04-16T16:28:00.409Z,58.31
2023-04-16T16:31:03.906Z,57.93
2023-04-16T16:34:06.252Z,57.65
2023-04-16T16:37:08.832Z,58.77
2023-04-16T16:40:12.691Z,62.35
2023-04-16T16:43:15.209Z,55.25
2023-04-16T16:46:17.887Z,58.60
2023-04-16T16:49:20.391Z,58.75
2023-04-16T16:52:24.295Z,60.17
2023-04-16T16:55:28.064Z,58.81
2023-04-16T16:58:30.899Z,55.84
2023-04-16T17:01:35.471Z,57.31
2023-04-16T17:04:38.972Z,56.81
2023-04-16T17:07:41.885Z,59.92
2023-04-16T17:10:46.489Z,56.67
2023-04-16T17:13:49.029Z,55.53
2023-04-16T17:16:51.585Z,56.07
2023-04-16T17:19:56.492Z,55.84
2023-04-16T17:22:59.993Z,56.65
2023-04-16T17:26:08.565Z,54.85
2023-04-16T17:29:11.764Z,55.28
2023-04-16T17:32:15.488Z,55.23
2023-04-16T17:35:18.305Z,56.13
2023-04-16T17:38:21.068Z,56.51
2023-04-16T17:41:25.765Z,56.27
2023-04-16T17:44:28.584Z,56.57
2023-04-16T17:47:31.980Z,57.09
2023-04-16T17:50:35.752Z,57.55
2023-04-16T17:53:39.818Z,58.15
2023-04-16T17:56:44.561Z,58.92
2023-04-16T17:59:47.294Z,59.70
2023-04-16T18:02:52.751Z,60.16
2023-04-16T18:05:55.744Z,60.37
2023-04-16T18:08:58.806Z,61.16
2023-04-16T18:12:02.552Z,61.29
2023-04-16T18:15:06.235Z,62.13
2023-04-16T18:18:08.755Z,62.55
2023-04-16T18:21:11.708Z,62.39
2023-04-16T18:24:14.232Z,61.71
2023-04-16T18:27:18.437Z,62.53
2023-04-16T18:30:26.418Z,61.76
2023-04-16T18:33:52.627Z,62.61
2023-04-16T18:36:52.706Z,62.42
2023-04-16T18:39:58.377Z,62.04
2023-04-16T18:43:01.973Z,61.50
2023-04-16T18:46:05.168Z,61.66
2023-04-16T18:49:07.433Z,61.38
2023-04-16T18:52:09.754Z,60.83
2023-04-16T18:55:13.100Z,60.80
2023-04-16T18:58:18.262Z,61.61
2023-04-16T19:01:21.486Z,61.50
2023-04-16T19:04:26.549Z,60.93
2023-04-16T19:07:29.158Z,61.63
2023-04-16T19:10:32.151Z,62.66
2023-04-16T19:13:39.153Z,62.81
2023-04-16T19:16:42.166Z,62.31
2023-04-16T19:19:45.669Z,61.17
2023-04-16T19:22:53.434Z,61.79
2023-04-16T19:25:57.519Z,60.75
2023-04-16T19:29:03.244Z,60.90
2023-04-16T19:32:07.072Z,61.52
2023-04-16T19:35:12.079Z,60.30
2023-04-16T19:38:15.116Z,60.69
2023-04-16T19:41:17.629Z,61.02
2023-04-16T19:44:23.683Z,62.73
2023-04-16T19:47:26.527Z,60.65
2023-04-16T19:50:28.636Z,61.51
2023-04-16T19:53:31.050Z,60.28
2023-04-16T19:56:33.694Z,60.51
2023-04-16T19:59:38.923Z,60.30
2023-04-16T20:02:41.835Z,59.39
2023-04-16T20:05:44.604Z,58.72
2023-04-16T20:08:47.021Z,56.50
2023-04-16T20:11:51.035Z,56.17
2023-04-16T20:14:55.216Z,56.13
2023-04-16T20:17:58.294Z,55.14
2023-04-16T20:21:03.992Z,55.19
2023-04-16T20:24:11.665Z,54.99
2023-04-16T20:27:14.654Z,56.17
2023-04-16T20:30:19.029Z,55.89
2023-04-16T20:33:20.888Z,55.24
2023-04-16T20:36:23.772Z,56.16
2023-04-16T20:39:28.200Z,56.98
2023-04-16T20:42:32.324Z,58.17
2023-04-16T20:45:40.885Z,57.42
2023-04-16T20:48:43.317Z,56.81
2023-04-16T20:51:45.537Z,56.33
2023-04-16T20:54:47.834Z,55.83
2023-04-16T20:57:49.980Z,56.60
2023-04-16T21:00:55.067Z,56.12
2023-04-16T21:03:57.196Z,55.56
2023-04-16T21:07:03.213Z,55.65
2023-04-16T21:10:05.866Z,57.58
2023-04-16T21:13:07.725Z,56.40
2023-04-16T21:16:12.562Z,56.85
2023-04-16T21:19:14.478Z,57.40
2023-04-16T21:22:16.643Z,57.59
2023-04-16T21:25:18.447Z,56.48
2023-04-16T21:28:20.498Z,58.81
2023-04-16T21:31:23.800Z,59.24
2023-04-16T21:34:26.426Z,60.67
2023-04-16T21:37:28.232Z,60.08
2023-04-16T21:40:30.124Z,62.14
2023-04-16T21:43:34.623Z,61.17
2023-04-16T21:46:37.844Z,60.08
2023-04-16T21:49:39.783Z,60.28
2023-04-16T21:52:46.691Z,59.85
2023-04-16T21:55:48.513Z,60.26
2023-04-16T21:58:50.408Z,61.52
2023-04-16T22:01:53.667Z,61.19
2023-04-16T22:04:55.780Z,62.15
2023-04-16T22:07:58.361Z,59.53
2023-04-16T22:11:02.002Z,58.59
2023-04-16T22:14:08.869Z,59.08
2023-04-16T22:17:11.988Z,56.71
2023-04-16T22:20:14.678Z,59.73
2023-04-16T22:23:16.596Z,58.88
2023-04-16T22:26:18.443Z,57.56
2023-04-16T22:29:21.268Z,58.50
2023-04-16T22:32:24.586Z,57.23
2023-04-16T22:35:26.516Z,57.60
2023-04-16T22:38:29.304Z,57.73
2023-04-16T22:41:31.143Z,57.08
2023-04-16T22:44:33.277Z,58.22
2023-04-16T22:47:36.530Z,60.03
2023-04-16T22:50:38.366Z,60.78
2023-04-16T22:53:40.496Z,62.00
2023-04-16T22:56:42.326Z,61.90
2023-04-16T22:59:44.231Z,61.44
2023-04-16T23:02:47.709Z,60.95
2023-04-16T23:05:49.549Z,63.06
2023-04-16T23:08:51.363Z,62.50
2023-04-16T23:11:53.294Z,62.20
2023-04-16T23:14:55.100Z,63.28
2023-04-16T23:17:58.704Z,62.50
2023-04-16T23:21:00.621Z,63.10
2023-04-16T23:24:03.483Z,62.20
2023-04-16T23:27:06.116Z,62.63
2023-04-16T23:30:08.857Z,62.39
2023-04-16T23:33:12.536Z,62.19
2023-04-16T23:36:14.367Z,62.63
2023-04-16T23:39:17.157Z,62.11
2023-04-16T23:42:18.992Z,62.58
2023-04-16T23:45:20.865Z,62.63
2023-04-16T23:48:24.568Z,62.29
2023-04-16T23:51:26.690Z,63.30
2023-04-16T23:54:29.119Z,63.79
2023-04-16T23:57:31.106Z,63.36
